Time;durP1;ratioP1;P1;durP2;ratioP2;P2;SDS_P1;SDS_P2;PMS_P1;PMS_P2;Temp;Humidity;BMP_temperature;BMP_pressure;BME280_temperature;BME280_humidity;BME280_pressure;Samples;Min_cycle;Max_cycle;Signal;HPM_P1;HPM_P2
2022/05/20 00:00:09;;;;;;;6.68;5.72;;;;;;;;;;517068;28;1437;-89
2022/05/20 00:00:24;;;;;;;6.40;5.68;;;;;;;;;;518078;28;1596;-89
2022/05/20 00:00:41;;;;;;;6.43;5.57;;;;;;;;;;518705;28;1460;-89
2022/05/20 00:00:57;;;;;;;7.30;5.78;;;;;;;;;;515495;28;1533;-89
2022/05/20 00:01:24;;;;;;;8.00;5.68;;;;;;;;;;516838;28;1364;-90
2022/05/20 00:01:41;;;;;;;6.30;5.65;;;;;;;;;;518793;28;1622;-89
2022/05/20 00:01:56;;;;;;;6.78;5.60;;;;;;;;;;516988;28;1637;-89
2022/05/20 00:02:12;;;;;;;6.27;5.50;;;;;;;;;;517092;28;1597;-89
2022/05/20 00:02:27;;;;;;;5.93;5.32;;;;;;;;;;514921;28;1434;-89
2022/05/20 00:02:46;;;;;;;5.77;5.17;;;;;;;;;;517086;28;1438;-89
2022/05/20 00:03:02;;;;;;;6.32;5.40;;;;;;;;;;516675;28;1373;-89
2022/05/20 00:03:18;;;;;;;6.90;5.53;;;;;;;;;;518163;28;1506;-89
2022/05/20 00:03:38;;;;;;;6.80;5.70;;;;;;;;;;517094;28;1910;-90
2022/05/20 00:03:57;;;;;;;7.07;5.47;;;;;;;;;;515298;28;1512;-89
2022/05/20 00:04:13;;;;;;;7.35;5.43;;;;;;;;;;515574;28;1491;-89
2022/05/20 00:04:28;;;;;;;6.00;5.40;;;;;;;;;;516771;28;2134;-89
2022/05/20 00:04:43;;;;;;;6.03;5.33;;;;;;;;;;519793;28;1573;-89
2022/05/20 00:04:59;;;;;;;6.53;5.53;;;;;;;;;;517478;28;1403;-90
2022/05/20 00:05:15;;;;;;;6.57;5.60;;;;;;;;;;514872;28;1612;-90
2022/05/20 00:05:30;;;;;;;7.80;5.60;;;;;;;;;;513861;28;1413;-90
2022/05/20 00:05:48;;;;;;;8.00;5.60;;;;;;;;;;514013;28;1657;-90
2022/05/20 00:06:04;;;;;;;7.40;5.65;;;;;;;;;;516274;28;1487;-90
2022/05/20 00:06:25;;;;;;;8.30;5.90;;;;;;;;;;517067;28;1479;-90
2022/05/20 00:06:40;;;;;;;7.10;5.50;;;;;;;;;;517047;28;1506;-89
2022/05/20 00:06:55;;;;;;;6.73;5.50;;;;;;;;;;518284;28;1911;-89
2022/05/20 00:07:11;;;;;;;6.23;5.63;;;;;;;;;;520534;28;1576;-89
2022/05/20 00:07:26;;;;;;;8.27;5.80;;;;;;;;;;521345;28;1557;-89
2022/05/20 00:07:42;;;;;;;7.63;5.67;;;;;;;;;;520230;28;1724;-90
2022/05/20 00:08:06;;;;;;;6.78;5.75;;;;;;;;;;518331;28;1617;-89
2022/05/20 00:08:21;;;;;;;6.78;5.72;;;;;;;;;;518525;28;1624;-90
2022/05/20 00:08:38;;;;;;;6.20;5.50;;;;;;;;;;519727;28;1367;-89
2022/05/20 00:09:01;;;;;;;6.78;5.63;;;;;;;;;;519243;28;1525;-89
2022/05/20 00:09:17;;;;;;;6.72;5.45;;;;;;;;;;519292;28;1387;-89
2022/05/20 00:09:33;;;;;;;6.57;5.30;;;;;;;;;;519593;28;1467;-89
2022/05/20 00:09:49;;;;;;;5.80;5.20;;;;;;;;;;520767;28;1705;-87
2022/05/20 00:10:05;;;;;;;6.10;5.40;;;;;;;;;;520248;28;1212;-87
2022/05/20 00:10:21;;;;;;;6.68;5.95;;;;;;;;;;518559;28;1337;-88
2022/05/20 00:10:37;;;;;;;6.55;5.85;;;;;;;;;;518513;28;1373;-87
2022/05/20 00:10:57;;;;;;;6.40;5.70;;;;;;;;;;519453;28;1437;-87
2022/05/20 00:11:27;;;;;;;6.78;5.78;;;;;;;;;;520271;28;1358;-87
2022/05/20 00:11:43;;;;;;;7.45;5.57;;;;;;;;;;516158;28;1233;-87
2022/05/20 00:11:58;;;;;;;8.35;5.80;;;;;;;;;;514287;28;1157;-87
2022/05/20 00:12:14;;;;;;;8.00;5.87;;;;;;;;;;514385;28;1173;-88
2022/05/20 00:12:29;;;;;;;7.18;5.70;;;;;;;;;;512372;29;1219;-88
2022/05/20 00:12:46;;;;;;;6.27;5.67;;;;;;;;;;513136;28;825;-88
2022/05/20 00:13:01;;;;;;;6.35;5.55;;;;;;;;;;512442;28;1364;-87
2022/05/20 00:13:18;;;;;;;7.93;5.70;;;;;;;;;;514216;28;1320;-87
2022/05/20 00:13:33;;;;;;;7.15;5.68;;;;;;;;;;516197;28;1209;-88
2022/05/20 00:13:49;;;;;;;6.37;5.33;;;;;;;;;;516794;28;1255;-87
2022/05/20 00:14:05;;;;;;;6.50;5.32;;;;;;;;;;515503;28;1551;-87
2022/05/20 00:14:20;;;;;;;6.22;5.47;;;;;;;;;;518103;28;1193;-88
2022/05/20 00:14:36;;;;;;;6.00;5.40;;;;;;;;;;518173;28;1062;-87
2022/05/20 00:14:51;;;;;;;7.43;5.30;;;;;;;;;;518032;28;1203;-87
2022/05/20 00:15:09;;;;;;;8.80;5.47;;;;;;;;;;518410;28;915;-88
2022/05/20 00:15:26;;;;;;;9.40;5.50;;;;;;;;;;516339;28;1505;-88
2022/05/20 00:15:42;;;;;;;7.63;5.53;;;;;;;;;;514552;28;1531;-89
2022/05/20 00:15:58;;;;;;;6.18;5.50;;;;;;;;;;515675;28;1544;-90
2022/05/20 00:16:29;;;;;;;6.30;5.70;;;;;;;;;;514794;28;1239;-89
2022/05/20 00:16:44;;;;;;;6.95;5.53;;;;;;;;;;516992;28;1679;-89
2022/05/20 00:17:04;;;;;;;6.70;5.63;;;;;;;;;;515556;28;1613;-90
2022/05/20 00:17:19;;;;;;;5.93;5.43;;;;;;;;;;514836;28;1436;-89
2022/05/20 00:17:34;;;;;;;5.53;5.03;;;;;;;;;;516629;28;1538;-89
2022/05/20 00:17:50;;;;;;;5.57;4.93;;;;;;;;;;518050;28;1513;-89
2022/05/20 00:18:08;;;;;;;5.80;5.20;;;;;;;;;;517663;28;1386;-90
2022/05/20 00:18:23;;;;;;;7.50;5.40;;;;;;;;;;514545;28;1680;-89
2022/05/20 00:18:39;;;;;;;7.10;5.30;;;;;;;;;;515498;28;1630;-89
2022/05/20 00:18:55;;;;;;;6.80;5.50;;;;;;;;;;513775;28;1446;-89
2022/05/20 00:19:10;;;;;;;6.38;5.38;;;;;;;;;;517485;28;1615;-89
2022/05/20 00:19:25;;;;;;;6.07;5.00;;;;;;;;;;517511;28;1495;-89
2022/05/20 00:19:41;;;;;;;6.70;5.20;;;;;;;;;;515203;28;1618;-88
2022/05/20 00:19:56;;;;;;;6.15;5.20;;;;;;;;;;515722;28;1554;-89
2022/05/20 00:20:14;;;;;;;5.80;5.20;;;;;;;;;;515981;28;1586;-89
2022/05/20 00:20:30;;;;;;;6.35;5.55;;;;;;;;;;517349;28;1791;-89
2022/05/20 00:20:45;;;;;;;6.25;5.43;;;;;;;;;;515880;28;1596;-89
2022/05/20 00:21:01;;;;;;;6.27;5.67;;;;;;;;;;513182;28;1579;-90
2022/05/20 00:21:29;;;;;;;6.28;5.68;;;;;;;;;;513277;28;1735;-89
2022/05/20 00:21:44;;;;;;;7.32;6.05;;;;;;;;;;512432;28;1676;-88
2022/05/20 00:22:00;;;;;;;6.63;5.93;;;;;;;;;;511704;29;1575;-89
2022/05/20 00:22:16;;;;;;;6.65;5.65;;;;;;;;;;511006;29;1468;-89
2022/05/20 00:22:31;;;;;;;7.77;5.90;;;;;;;;;;511654;28;1590;-89
2022/05/20 00:22:47;;;;;;;7.07;5.80;;;;;;;;;;512939;28;1493;-89
2022/05/20 00:23:03;;;;;;;6.15;5.45;;;;;;;;;;515247;28;1393;-88
2022/05/20 00:23:18;;;;;;;6.20;5.53;;;;;;;;;;514771;28;1769;-89
2022/05/20 00:23:34;;;;;;;8.03;5.80;;;;;;;;;;514355;28;1911;-89
2022/05/20 00:23:49;;;;;;;8.25;5.95;;;;;;;;;;515440;28;1433;-89
2022/05/20 00:24:05;;;;;;;7.40;5.80;;;;;;;;;;514563;28;1490;-89
2022/05/20 00:24:21;;;;;;;7.03;5.70;;;;;;;;;;516926;28;1220;-88
2022/05/20 00:25:45;;;;;;;7.47;5.70;;;;;;;;;;519735;28;1669;-89
2022/05/20 00:25:49;;;;;;;6.88;5.65;;;;;;;;;;521742;28;1508;-89
2022/05/20 00:26:05;;;;;;;6.90;5.50;;;;;;;;;;523905;28;1879;-89
2022/05/20 00:26:21;;;;;;;7.00;5.70;;;;;;;;;;522062;28;1477;-89
2022/05/20 00:26:36;;;;;;;6.55;5.78;;;;;;;;;;521160;28;1494;-90
2022/05/20 00:26:51;;;;;;;6.20;5.50;;;;;;;;;;522252;28;1378;-89
2022/05/20 00:27:07;;;;;;;6.37;5.57;;;;;;;;;;522044;28;1363;-89
2022/05/20 00:27:22;;;;;;;6.93;6.10;;;;;;;;;;521381;28;1521;-89
2022/05/20 00:27:38;;;;;;;7.77;6.23;;;;;;;;;;521994;28;1464;-89
2022/05/20 00:27:53;;;;;;;7.07;6.00;;;;;;;;;;522042;28;1549;-89
2022/05/20 00:28:09;;;;;;;7.55;6.00;;;;;;;;;;523929;28;1361;-89
2022/05/20 00:28:28;;;;;;;7.47;6.15;;;;;;;;;;519473;28;1512;-89
2022/05/20 00:28:48;;;;;;;7.15;6.07;;;;;;;;;;519823;28;1564;-89
2022/05/20 00:29:03;;;;;;;6.45;5.80;;;;;;;;;;517478;28;1441;-90
2022/05/20 00:29:19;;;;;;;7.87;5.83;;;;;;;;;;517141;28;1317;-90
2022/05/20 00:29:34;;;;;;;7.68;5.65;;;;;;;;;;516049;28;1465;-89
2022/05/20 00:29:50;;;;;;;6.50;5.63;;;;;;;;;;514961;28;1531;-88
2022/05/20 00:30:06;;;;;;;7.63;5.97;;;;;;;;;;515623;28;1647;-90
2022/05/20 00:30:22;;;;;;;8.07;6.00;;;;;;;;;;516869;28;1440;-89
2022/05/20 00:30:38;;;;;;;6.72;5.85;;;;;;;;;;516914;28;1714;-87
2022/05/20 00:31:13;;;;;;;6.68;5.88;;;;;;;;;;516250;28;1518;-88
2022/05/20 00:31:28;;;;;;;8.32;6.32;;;;;;;;;;518651;28;1684;-89
2022/05/20 00:31:45;;;;;;;8.00;6.33;;;;;;;;;;518281;28;1596;-89
2022/05/20 00:32:00;;;;;;;8.68;6.20;;;;;;;;;;518760;28;1451;-89
2022/05/20 00:32:16;;;;;;;8.87;6.20;;;;;;;;;;517202;28;1629;-89
2022/05/20 00:32:31;;;;;;;7.20;6.30;;;;;;;;;;518003;28;1514;-89
2022/05/20 00:32:47;;;;;;;7.53;6.43;;;;;;;;;;517251;28;1443;-89
2022/05/20 00:33:03;;;;;;;8.25;6.65;;;;;;;;;;519694;28;1627;-89
2022/05/20 00:33:19;;;;;;;8.70;6.90;;;;;;;;;;519281;28;1458;-89
2022/05/20 00:33:37;;;;;;;8.23;6.80;;;;;;;;;;517422;28;1533;-89
2022/05/20 00:33:53;;;;;;;9.38;6.40;;;;;;;;;;517574;28;1458;-89
2022/05/20 00:34:08;;;;;;;9.33;6.57;;;;;;;;;;517418;28;1497;-89
2022/05/20 00:34:23;;;;;;;8.73;6.75;;;;;;;;;;515687;28;1739;-89
2022/05/20 00:34:39;;;;;;;9.10;6.53;;;;;;;;;;516610;28;1710;-90
2022/05/20 00:34:54;;;;;;;9.13;6.50;;;;;;;;;;514141;28;1537;-89
2022/05/20 00:35:10;;;;;;;7.72;6.47;;;;;;;;;;514782;28;1460;-89
2022/05/20 00:35:26;;;;;;;6.85;6.15;;;;;;;;;;514359;28;1731;-90
2022/05/20 00:35:45;;;;;;;6.40;5.72;;;;;;;;;;513941;28;1285;-89
2022/05/20 00:36:01;;;;;;;7.78;5.78;;;;;;;;;;513745;28;1585;-88
2022/05/20 00:36:16;;;;;;;8.20;6.00;;;;;;;;;;514633;28;1468;-89
2022/05/20 00:36:31;;;;;;;7.50;6.03;;;;;;;;;;514595;28;1406;-89
2022/05/20 00:36:47;;;;;;;6.87;6.00;;;;;;;;;;515776;28;1853;-89
2022/05/20 00:37:02;;;;;;;8.57;6.28;;;;;;;;;;516815;28;1523;-89
2022/05/20 00:37:18;;;;;;;8.57;6.63;;;;;;;;;;518597;28;1487;-88
2022/05/20 00:37:33;;;;;;;8.00;7.10;;;;;;;;;;519120;28;1692;-88
2022/05/20 00:37:49;;;;;;;8.30;7.30;;;;;;;;;;520088;28;1443;-89
2022/05/20 00:38:05;;;;;;;8.23;7.32;;;;;;;;;;517917;28;1307;-89
2022/05/20 00:38:21;;;;;;;8.30;7.43;;;;;;;;;;517751;28;1376;-89
2022/05/20 00:38:37;;;;;;;9.10;7.63;;;;;;;;;;518117;28;1513;-89
2022/05/20 00:38:52;;;;;;;9.30;7.73;;;;;;;;;;515810;28;1457;-90
2022/05/20 00:39:07;;;;;;;9.63;8.23;;;;;;;;;;516655;28;1443;-89
2022/05/20 00:39:23;;;;;;;9.97;8.57;;;;;;;;;;514698;28;1403;-89
2022/05/20 00:39:38;;;;;;;9.43;8.48;;;;;;;;;;514911;28;1452;-89
2022/05/20 00:39:54;;;;;;;9.33;8.37;;;;;;;;;;516144;28;1573;-89
2022/05/20 00:40:19;;;;;;;10.73;8.50;;;;;;;;;;515565;28;1623;-90
2022/05/20 00:40:35;;;;;;;12.98;9.50;;;;;;;;;;516959;28;1514;-89
2022/05/20 00:40:52;;;;;;;11.97;9.90;;;;;;;;;;517817;28;1367;-89
2022/05/20 00:41:16;;;;;;;12.57;11.27;;;;;;;;;;517471;28;1412;-88
2022/05/20 00:41:31;;;;;;;14.48;12.05;;;;;;;;;;518711;28;1542;-89
2022/05/20 00:41:47;;;;;;;13.90;11.90;;;;;;;;;;518630;28;1409;-88
2022/05/20 00:42:12;;;;;;;13.40;11.90;;;;;;;;;;517171;28;1411;-88
2022/05/20 00:42:27;;;;;;;13.00;11.68;;;;;;;;;;515245;28;1512;-89
2022/05/20 00:42:43;;;;;;;12.47;11.17;;;;;;;;;;514568;28;1511;-88
2022/05/20 00:43:10;;;;;;;12.50;10.63;;;;;;;;;;515536;28;1443;-89
2022/05/20 00:43:26;;;;;;;12.18;10.05;;;;;;;;;;513506;28;1382;-89
2022/05/20 00:43:44;;;;;;;12.10;9.93;;;;;;;;;;511469;29;1922;-89
2022/05/20 00:44:00;;;;;;;10.95;9.85;;;;;;;;;;512099;28;1416;-88
2022/05/20 00:44:15;;;;;;;11.50;9.90;;;;;;;;;;513260;28;1605;-89
2022/05/20 00:44:32;;;;;;;11.23;9.80;;;;;;;;;;514124;28;1421;-89
2022/05/20 00:44:47;;;;;;;10.63;9.50;;;;;;;;;;515608;28;1631;-90
2022/05/20 00:45:04;;;;;;;10.73;9.43;;;;;;;;;;516347;28;1366;-89
2022/05/20 00:45:20;;;;;;;10.80;9.70;;;;;;;;;;519770;28;1705;-89
2022/05/20 00:45:36;;;;;;;10.50;9.40;;;;;;;;;;520054;28;1550;-89
2022/05/20 00:45:54;;;;;;;9.88;8.88;;;;;;;;;;519511;28;1360;-89
2022/05/20 00:46:28;;;;;;;9.95;8.95;;;;;;;;;;519444;28;1552;-90
2022/05/20 00:46:43;;;;;;;11.38;9.30;;;;;;;;;;518945;28;1364;-90
2022/05/20 00:46:58;;;;;;;10.52;9.15;;;;;;;;;;518278;28;1531;-90
2022/05/20 00:47:14;;;;;;;10.80;9.80;;;;;;;;;;515619;28;1427;-89
2022/05/20 00:47:30;;;;;;;11.45;10.30;;;;;;;;;;514654;28;1390;-89
2022/05/20 00:47:45;;;;;;;12.57;9.97;;;;;;;;;;513685;28;1684;-89
2022/05/20 00:48:01;;;;;;;11.57;9.80;;;;;;;;;;515238;28;2033;-89
2022/05/20 00:48:17;;;;;;;10.50;9.50;;;;;;;;;;513281;28;1651;-89
2022/05/20 00:48:32;;;;;;;10.80;9.00;;;;;;;;;;514705;28;1519;-89
2022/05/20 00:49:10;;;;;;;10.98;8.48;;;;;;;;;;514820;28;1678;-89
2022/05/20 00:49:28;;;;;;;9.13;7.63;;;;;;;;;;517012;28;1598;-89
2022/05/20 00:49:52;;;;;;;8.23;7.28;;;;;;;;;;516953;28;1541;-88
2022/05/20 00:50:14;;;;;;;8.48;7.35;;;;;;;;;;517889;28;1582;-89
2022/05/20 00:50:30;;;;;;;8.57;7.03;;;;;;;;;;519287;28;1439;-89
2022/05/20 00:50:56;;;;;;;8.40;6.97;;;;;;;;;;519674;28;1466;-89
2022/05/20 00:51:39;;;;;;;7.57;6.68;;;;;;;;;;520681;28;1479;-89
2022/05/20 00:51:55;;;;;;;6.80;6.10;;;;;;;;;;519127;28;1722;-89
2022/05/20 00:52:13;;;;;;;6.87;6.07;;;;;;;;;;520097;28;1410;-89
2022/05/20 00:52:32;;;;;;;6.93;6.13;;;;;;;;;;518633;28;1490;-88
2022/05/20 00:52:49;;;;;;;8.80;6.53;;;;;;;;;;517459;28;1456;-89
2022/05/20 00:53:05;;;;;;;8.73;6.30;;;;;;;;;;516918;28;1427;-89
2022/05/20 00:53:23;;;;;;;6.68;5.90;;;;;;;;;;515412;28;1455;-90
2022/05/20 00:54:13;;;;;;;6.82;5.78;;;;;;;;;;516182;28;1423;-88
2022/05/20 00:54:36;;;;;;;8.85;6.30;;;;;;;;;;512800;28;1504;-89
2022/05/20 00:54:59;;;;;;;7.78;6.10;;;;;;;;;;517419;28;1462;-89
2022/05/20 00:55:17;;;;;;;7.30;6.28;;;;;;;;;;517534;28;1552;-89
2022/05/20 00:55:33;;;;;;;8.13;6.40;;;;;;;;;;516518;28;1483;-89
2022/05/20 00:55:49;;;;;;;7.60;6.25;;;;;;;;;;515555;28;1479;-89
2022/05/20 00:56:08;;;;;;;7.07;6.07;;;;;;;;;;515661;28;1519;-89
2022/05/20 00:56:28;;;;;;;6.93;5.80;;;;;;;;;;516532;28;1320;-88
2022/05/20 00:57:02;;;;;;;7.18;6.45;;;;;;;;;;516413;28;1482;-88
2022/05/20 00:57:33;;;;;;;10.27;7.68;;;;;;;;;;517834;28;1486;-89
2022/05/20 00:58:03;;;;;;;8.63;7.40;;;;;;;;;;516550;28;1439;-89
2022/05/20 00:58:21;;;;;;;9.63;7.40;;;;;;;;;;518164;28;1432;-89
2022/05/20 00:58:39;;;;;;;8.90;7.38;;;;;;;;;;519612;28;1780;-89
2022/05/20 00:58:55;;;;;;;8.10;7.28;;;;;;;;;;518639;28;1477;-89
2022/05/20 00:59:17;;;;;;;8.05;7.20;;;;;;;;;;518748;28;1547;-89
2022/05/20 00:59:37;;;;;;;8.57;7.25;;;;;;;;;;516959;28;1530;-89
2022/05/20 01:00:11;;;;;;;8.98;6.95;;;;;;;;;;516632;28;1700;-89
2022/05/20 01:00:29;;;;;;;9.15;8.05;;;;;;;;;;512666;28;1390;-89
2022/05/20 01:00:51;;;;;;;9.68;8.45;;;;;;;;;;513960;28;1637;-86
2022/05/20 01:01:19;;;;;;;11.45;8.88;;;;;;;;;;517707;28;1431;-87
2022/05/20 01:01:36;;;;;;;11.77;9.15;;;;;;;;;;517011;28;1601;-87
2022/05/20 01:02:06;;;;;;;10.75;9.23;;;;;;;;;;519349;28;1526;-86
2022/05/20 01:02:23;;;;;;;11.82;8.68;;;;;;;;;;520335;28;1406;-86
2022/05/20 01:02:40;;;;;;;11.52;8.73;;;;;;;;;;521347;28;1378;-88
2022/05/20 01:03:04;;;;;;;9.80;8.80;;;;;;;;;;519799;28;1639;-87
2022/05/20 01:03:23;;;;;;;10.18;8.60;;;;;;;;;;519802;28;1537;-87
2022/05/20 01:03:39;;;;;;;10.60;8.57;;;;;;;;;;519261;28;1944;-87
2022/05/20 01:03:55;;;;;;;9.60;8.60;;;;;;;;;;520120;28;1326;-87
2022/05/20 01:04:10;;;;;;;10.45;8.98;;;;;;;;;;519067;28;1469;-86
2022/05/20 01:04:26;;;;;;;10.27;9.10;;;;;;;;;;520610;28;1434;-87
2022/05/20 01:04:42;;;;;;;10.07;9.07;;;;;;;;;;521365;28;911;-86
2022/05/20 01:05:03;;;;;;;10.52;9.23;;;;;;;;;;520742;28;864;-87
2022/05/20 01:05:27;;;;;;;10.93;9.20;;;;;;;;;;522087;28;1591;-87
2022/05/20 01:05:45;;;;;;;10.05;9.00;;;;;;;;;;521253;28;1568;-87
2022/05/20 01:06:01;;;;;;;10.05;9.05;;;;;;;;;;521563;28;1654;-87
2022/05/20 01:06:16;;;;;;;10.13;9.13;;;;;;;;;;520594;28;1495;-87
2022/05/20 01:06:32;;;;;;;10.43;9.00;;;;;;;;;;519332;28;1533;-88
2022/05/20 01:06:48;;;;;;;10.50;9.03;;;;;;;;;;520038;28;1462;-86
2022/05/20 01:07:05;;;;;;;10.35;9.27;;;;;;;;;;516396;28;1576;-87
2022/05/20 01:07:21;;;;;;;10.73;9.40;;;;;;;;;;520090;28;1588;-86
2022/05/20 01:07:38;;;;;;;10.63;9.10;;;;;;;;;;517185;28;1557;-86
2022/05/20 01:07:54;;;;;;;9.38;8.20;;;;;;;;;;516330;28;1526;-86
2022/05/20 01:08:13;;;;;;;8.75;7.50;;;;;;;;;;516448;28;1537;-87
2022/05/20 01:08:32;;;;;;;8.93;7.60;;;;;;;;;;518294;28;872;-87
2022/05/20 01:08:50;;;;;;;8.18;7.32;;;;;;;;;;519523;28;1546;-86
2022/05/20 01:09:06;;;;;;;7.78;6.97;;;;;;;;;;518069;28;1546;-87
2022/05/20 01:09:21;;;;;;;7.60;6.83;;;;;;;;;;515999;28;1180;-89
2022/05/20 01:09:52;;;;;;;7.70;6.90;;;;;;;;;;517953;28;1320;-89
2022/05/20 01:10:08;;;;;;;7.65;6.95;;;;;;;;;;517915;28;1491;-89
2022/05/20 01:10:24;;;;;;;7.78;7.03;;;;;;;;;;516768;28;959;-89
2022/05/20 01:10:39;;;;;;;7.80;7.00;;;;;;;;;;516447;28;1317;-89
2022/05/20 01:10:57;;;;;;;7.83;7.03;;;;;;;;;;514879;28;1257;-89
2022/05/20 01:11:19;;;;;;;7.88;7.07;;;;;;;;;;517100;28;1346;-89
2022/05/20 01:11:36;;;;;;;7.70;6.90;;;;;;;;;;516957;28;1269;-89
2022/05/20 01:11:52;;;;;;;9.43;7.43;;;;;;;;;;514521;28;1233;-89
2022/05/20 01:12:09;;;;;;;9.00;7.80;;;;;;;;;;516156;28;1219;-89
2022/05/20 01:12:24;;;;;;;8.25;7.45;;;;;;;;;;514180;28;1397;-89
2022/05/20 01:12:40;;;;;;;8.35;7.40;;;;;;;;;;516049;28;1307;-88
2022/05/20 01:12:57;;;;;;;8.87;7.60;;;;;;;;;;518305;28;1145;-89
2022/05/20 01:13:15;;;;;;;8.80;7.90;;;;;;;;;;518373;28;1402;-89
2022/05/20 01:13:31;;;;;;;8.85;7.68;;;;;;;;;;516448;28;1462;-89
2022/05/20 01:13:49;;;;;;;8.98;7.30;;;;;;;;;;516520;28;860;-90
2022/05/20 01:14:05;;;;;;;7.90;7.10;;;;;;;;;;514452;28;1308;-89
2022/05/20 01:14:25;;;;;;;8.20;7.10;;;;;;;;;;514822;28;1031;-89
2022/05/20 01:14:40;;;;;;;9.27;7.30;;;;;;;;;;514743;28;1333;-89
2022/05/20 01:14:58;;;;;;;8.13;6.78;;;;;;;;;;514742;28;916;-89
2022/05/20 01:15:14;;;;;;;8.10;6.68;;;;;;;;;;516433;28;1284;-89
2022/05/20 01:15:30;;;;;;;7.97;6.90;;;;;;;;;;518067;28;1261;-89
2022/05/20 01:15:46;;;;;;;9.13;7.15;;;;;;;;;;516384;28;1529;-90
2022/05/20 01:16:07;;;;;;;9.73;7.53;;;;;;;;;;514256;28;1437;-89
2022/05/20 01:16:23;;;;;;;8.90;7.80;;;;;;;;;;514430;28;1275;-89
2022/05/20 01:16:38;;;;;;;8.98;7.60;;;;;;;;;;516476;28;1418;-89
2022/05/20 01:16:54;;;;;;;8.52;7.50;;;;;;;;;;515185;28;1301;-89
2022/05/20 01:17:11;;;;;;;8.53;7.60;;;;;;;;;;514411;28;856;-90
2022/05/20 01:17:28;;;;;;;8.20;7.10;;;;;;;;;;512598;29;1407;-89
2022/05/20 01:17:45;;;;;;;8.65;7.07;;;;;;;;;;512649;29;1289;-89
2022/05/20 01:18:00;;;;;;;7.82;7.03;;;;;;;;;;512415;28;1410;-89
2022/05/20 01:18:16;;;;;;;7.73;7.03;;;;;;;;;;514399;28;1163;-89
2022/05/20 01:18:35;;;;;;;8.23;7.43;;;;;;;;;;514446;28;1228;-89
2022/05/20 01:18:53;;;;;;;8.90;7.82;;;;;;;;;;514730;28;1015;-89
2022/05/20 01:19:16;;;;;;;9.68;8.27;;;;;;;;;;514548;28;1258;-90
2022/05/20 01:19:35;;;;;;;12.20;10.93;;;;;;;;;;515347;28;1281;-89
2022/05/20 01:19:53;;;;;;;14.18;11.68;;;;;;;;;;514513;28;1283;-89
2022/05/20 01:20:14;;;;;;;14.47;10.70;;;;;;;;;;516494;28;1674;-89
2022/05/20 01:20:37;;;;;;;13.90;10.80;;;;;;;;;;518285;28;982;-89
2022/05/20 01:20:56;;;;;;;13.07;11.00;;;;;;;;;;516557;28;885;-89
2022/05/20 01:21:20;;;;;;;14.15;12.07;;;;;;;;;;518599;28;1310;-89
2022/05/20 01:21:36;;;;;;;14.10;12.50;;;;;;;;;;518404;28;1234;-88
2022/05/20 01:21:53;;;;;;;14.52;13.00;;;;;;;;;;516629;28;1187;-89
2022/05/20 01:22:11;;;;;;;14.88;12.75;;;;;;;;;;517202;28;1424;-89
2022/05/20 01:22:40;;;;;;;14.60;12.68;;;;;;;;;;516467;28;1227;-89
2022/05/20 01:22:56;;;;;;;16.77;13.55;;;;;;;;;;516533;28;1344;-89
2022/05/20 01:23:14;;;;;;;16.92;14.60;;;;;;;;;;516276;28;1258;-89
2022/05/20 01:23:33;;;;;;;16.80;14.65;;;;;;;;;;518242;28;1306;-89
2022/05/20 01:23:48;;;;;;;14.93;13.43;;;;;;;;;;516257;28;1961;-89
2022/05/20 01:24:04;;;;;;;14.23;12.83;;;;;;;;;;516576;28;1305;-89
2022/05/20 01:24:20;;;;;;;13.77;12.38;;;;;;;;;;514319;28;1176;-89
2022/05/20 01:24:36;;;;;;;14.05;12.00;;;;;;;;;;513267;28;1208;-89
2022/05/20 01:24:51;;;;;;;15.05;12.00;;;;;;;;;;512380;28;1344;-89
2022/05/20 01:25:09;;;;;;;13.48;12.00;;;;;;;;;;514368;28;1202;-89
2022/05/20 01:25:27;;;;;;;13.30;11.90;;;;;;;;;;516460;28;1340;-89
2022/05/20 01:25:45;;;;;;;12.57;11.25;;;;;;;;;;516271;28;1665;-89
2022/05/20 01:26:01;;;;;;;12.88;11.52;;;;;;;;;;516403;28;1263;-89
2022/05/20 01:26:16;;;;;;;14.10;12.05;;;;;;;;;;517826;28;849;-90
2022/05/20 01:26:31;;;;;;;13.63;12.23;;;;;;;;;;516567;28;1205;-90
2022/05/20 01:26:49;;;;;;;13.52;12.20;;;;;;;;;;516552;28;1171;-90
2022/05/20 01:27:05;;;;;;;13.50;11.88;;;;;;;;;;516377;28;1510;-90
2022/05/20 01:27:20;;;;;;;13.43;11.93;;;;;;;;;;513958;28;1506;-90
2022/05/20 01:27:42;;;;;;;13.40;12.00;;;;;;;;;;511485;29;1280;-89
2022/05/20 01:27:58;;;;;;;13.82;12.38;;;;;;;;;;514074;28;947;-89
2022/05/20 01:28:16;;;;;;;15.68;13.30;;;;;;;;;;512443;29;1368;-89
2022/05/20 01:28:33;;;;;;;16.13;13.43;;;;;;;;;;514246;28;1420;-89
2022/05/20 01:28:48;;;;;;;15.02;13.40;;;;;;;;;;516647;28;823;-90
2022/05/20 01:29:03;;;;;;;15.63;13.30;;;;;;;;;;514347;28;1322;-90
2022/05/20 01:29:19;;;;;;;16.10;12.93;;;;;;;;;;512282;29;1267;-89
2022/05/20 01:29:35;;;;;;;14.40;12.60;;;;;;;;;;514319;28;796;-89
2022/05/20 01:29:50;;;;;;;14.77;13.27;;;;;;;;;;515460;28;1239;-89
2022/05/20 01:30:06;;;;;;;15.70;14.00;;;;;;;;;;513193;28;1269;-89
2022/05/20 01:30:24;;;;;;;16.05;14.30;;;;;;;;;;514731;28;1154;-89
2022/05/20 01:30:45;;;;;;;17.15;14.07;;;;;;;;;;516423;28;1150;-89
2022/05/20 01:31:21;;;;;;;15.77;13.52;;;;;;;;;;517915;28;852;-89
2022/05/20 01:31:36;;;;;;;18.05;14.77;;;;;;;;;;520578;28;1385;-89
2022/05/20 01:31:51;;;;;;;17.53;14.53;;;;;;;;;;516506;28;1142;-89
2022/05/20 01:32:07;;;;;;;17.23;14.37;;;;;;;;;;516387;28;1303;-90
2022/05/20 01:32:23;;;;;;;16.58;14.32;;;;;;;;;;514970;28;1252;-89
2022/05/20 01:32:39;;;;;;;16.85;14.45;;;;;;;;;;514975;28;1077;-90
2022/05/20 01:32:55;;;;;;;18.45;14.80;;;;;;;;;;514577;28;1212;-89
2022/05/20 01:33:25;;;;;;;17.58;15.00;;;;;;;;;;514574;28;1326;-90
2022/05/20 01:33:46;;;;;;;16.17;14.48;;;;;;;;;;514617;28;1046;-89
2022/05/20 01:34:01;;;;;;;15.85;14.20;;;;;;;;;;517413;28;1253;-89
2022/05/20 01:34:17;;;;;;;17.57;14.73;;;;;;;;;;519208;28;1248;-89
2022/05/20 01:34:33;;;;;;;16.52;14.20;;;;;;;;;;518126;28;1347;-90
2022/05/20 01:34:48;;;;;;;15.65;14.05;;;;;;;;;;518292;28;1489;-89
2022/05/20 01:35:22;;;;;;;15.53;13.93;;;;;;;;;;520155;28;1398;-89
2022/05/20 01:35:43;;;;;;;14.38;12.90;;;;;;;;;;518489;28;1339;-89
2022/05/20 01:36:01;;;;;;;15.30;13.80;;;;;;;;;;516427;28;1261;-89
2022/05/20 01:36:20;;;;;;;16.73;14.13;;;;;;;;;;516101;28;1323;-89
2022/05/20 01:36:35;;;;;;;16.73;14.05;;;;;;;;;;514172;28;1366;-89
2022/05/20 01:36:51;;;;;;;16.40;14.70;;;;;;;;;;514779;28;1273;-89
2022/05/20 01:37:06;;;;;;;16.88;14.98;;;;;;;;;;516232;28;1348;-89
2022/05/20 01:37:22;;;;;;;18.30;15.30;;;;;;;;;;516644;28;939;-90
2022/05/20 01:37:37;;;;;;;17.00;15.07;;;;;;;;;;517350;28;1345;-90
2022/05/20 01:37:53;;;;;;;17.40;15.60;;;;;;;;;;514353;28;1141;-89
2022/05/20 01:38:10;;;;;;;18.33;16.42;;;;;;;;;;516587;28;1433;-89
2022/05/20 01:38:26;;;;;;;17.48;15.68;;;;;;;;;;516440;28;1224;-89
2022/05/20 01:38:43;;;;;;;17.42;15.60;;;;;;;;;;514200;28;1460;-89
2022/05/20 01:38:59;;;;;;;18.05;16.13;;;;;;;;;;515064;28;990;-89
2022/05/20 01:39:14;;;;;;;17.00;15.25;;;;;;;;;;514254;28;1379;-89
2022/05/20 01:39:30;;;;;;;16.43;14.73;;;;;;;;;;514506;28;852;-89
2022/05/20 01:39:46;;;;;;;16.80;15.00;;;;;;;;;;515204;28;1189;-90
2022/05/20 01:40:01;;;;;;;16.80;15.10;;;;;;;;;;517239;28;855;-90
2022/05/20 01:40:17;;;;;;;16.53;14.90;;;;;;;;;;520238;28;839;-89
2022/05/20 01:40:42;;;;;;;16.17;14.48;;;;;;;;;;518577;28;1227;-89
2022/05/20 01:41:22;;;;;;;15.85;14.25;;;;;;;;;;518525;28;1446;-89
2022/05/20 01:41:40;;;;;;;15.68;14.15;;;;;;;;;;520423;28;1310;-89
2022/05/20 01:42:04;;;;;;;16.52;14.07;;;;;;;;;;520610;28;934;-89
2022/05/20 01:42:27;;;;;;;15.68;13.90;;;;;;;;;;518443;28;1216;-89
2022/05/20 01:43:00;;;;;;;15.70;14.20;;;;;;;;;;518288;28;1292;-90
2022/05/20 01:43:28;;;;;;;17.00;15.30;;;;;;;;;;518383;28;974;-89
2022/05/20 01:44:12;;;;;;;17.13;15.32;;;;;;;;;;518360;28;1919;-90
2022/05/20 01:45:00;;;;;;;17.13;15.35;;;;;;;;;;518450;28;1491;-90
2022/05/20 01:45:23;;;;;;;17.50;15.60;;;;;;;;;;514436;28;1365;-89
2022/05/20 01:46:03;;;;;;;16.95;15.15;;;;;;;;;;518133;28;1228;-89
2022/05/20 01:46:35;;;;;;;16.63;14.93;;;;;;;;;;514237;28;1212;-89
2022/05/20 01:47:10;;;;;;;17.02;15.23;;;;;;;;;;518566;28;1218;-89
2022/05/20 01:47:33;;;;;;;16.15;14.45;;;;;;;;;;520653;28;879;-90
2022/05/20 01:48:12;;;;;;;15.65;14.00;;;;;;;;;;520290;28;883;-89
2022/05/20 01:48:41;;;;;;;16.33;14.13;;;;;;;;;;520214;28;915;-89
2022/05/20 01:49:14;;;;;;;15.32;13.80;;;;;;;;;;519577;28;1569;-88
2022/05/20 01:49:48;;;;;;;16.30;14.40;;;;;;;;;;518995;28;1582;-89
2022/05/20 01:50:14;;;;;;;16.35;14.50;;;;;;;;;;518662;28;1490;-90
2022/05/20 01:50:36;;;;;;;16.17;14.50;;;;;;;;;;520539;28;1543;-89
2022/05/20 01:50:54;;;;;;;15.35;13.77;;;;;;;;;;519367;28;1376;-90
2022/05/20 01:51:31;;;;;;;14.77;13.27;;;;;;;;;;516125;28;1462;-90
2022/05/20 01:51:51;;;;;;;15.18;13.55;;;;;;;;;;515889;28;1749;-89
2022/05/20 01:52:45;;;;;;;16.25;12.95;;;;;;;;;;516758;28;1495;-90
2022/05/20 01:53:08;;;;;;;13.32;12.02;;;;;;;;;;516701;28;1459;-89
2022/05/20 01:53:40;;;;;;;13.30;12.07;;;;;;;;;;517535;28;1552;-90
2022/05/20 01:54:02;;;;;;;13.90;12.40;;;;;;;;;;519196;28;1572;-90
2022/05/20 01:54:27;;;;;;;15.85;12.70;;;;;;;;;;520276;28;1442;-90
2022/05/20 01:55:12;;;;;;;14.30;12.63;;;;;;;;;;520612;28;1486;-90
2022/05/20 01:55:40;;;;;;;14.57;12.23;;;;;;;;;;521293;28;1580;-90
2022/05/20 01:55:59;;;;;;;13.98;12.45;;;;;;;;;;520876;28;1467;-90
2022/05/20 01:56:20;;;;;;;13.52;12.10;;;;;;;;;;517404;28;1494;-90